Time;durP1;ratioP1;P1;durP2;ratioP2;P2;SDS_P1;SDS_P2;PMS_P1;PMS_P2;Temp;Humidity;BMP_temperature;BMP_pressure;BME280_temperature;BME280_humidity;BME280_pressure;Samples;Min_cycle;Max_cycle;Signal;HPM_P1;HPM_P2
2021/09/10 00:01:53;;;;;;;;;;;;;;;7.71;99.31;99365.50;5012863;28;19922;-86
2021/09/10 00:04:18;;;;;;;;;;;;;;;7.71;98.81;99368.13;5013078;28;19929;-85
2021/09/10 00:06:43;;;;;;;;;;;;;;;7.76;98.74;99363.53;5012839;28;19922;-86
2021/09/10 00:09:08;;;;;;;;;;;;;;;7.74;98.35;99362.75;5012027;28;19979;-85
2021/09/10 00:11:34;;;;;;;;;;;;;;;7.80;98.37;99366.91;5003240;28;19928;-86
2021/09/10 00:13:59;;;;;;;;;;;;;;;7.80;97.40;99362.50;5002941;28;20280;-86
2021/09/10 00:16:24;;;;;;;;;;;;;;;7.80;96.88;99362.50;5002481;28;20008;-86
2021/09/10 00:18:50;;;;;;;;;;;;;;;7.78;96.42;99366.13;5003441;28;20399;-86
2021/09/10 00:21:15;;;;;;;;;;;;;;;7.87;96.64;99363.13;5004286;28;20353;-86
2021/09/10 00:23:41;;;;;;;;;;;;;;;7.84;97.53;99360.59;5002598;28;19949;-85
2021/09/10 00:26:06;;;;;;;;;;;;;;;7.93;97.75;99362.00;5004432;28;19921;-86
2021/09/10 00:28:31;;;;;;;;;;;;;;;7.95;97.22;99366.31;5003887;28;19921;-86
2021/09/10 00:30:57;;;;;;;;;;;;;;;7.93;96.58;99362.00;5004686;28;19918;-86
2021/09/10 00:33:22;;;;;;;;;;;;;;;7.92;96.46;99362.97;5003947;28;19926;-86
2021/09/10 00:35:47;;;;;;;;;;;;;;;7.85;96.08;99369.38;5003933;28;19922;-86
2021/09/10 00:38:12;;;;;;;;;;;;;;;7.84;96.13;99367.66;5000805;28;19980;-86
2021/09/10 00:40:38;;;;;;;;;;;;;;;7.86;95.51;99360.56;5027763;28;19925;-86
2021/09/10 00:43:03;;;;;;;;;;;;;;;7.83;95.03;99366.78;5026684;28;20376;-86
2021/09/10 00:45:28;;;;;;;;;;;;;;;7.82;94.77;99371.22;5000821;28;19918;-86
2021/09/10 00:47:55;;;;;;;;;;;;;;;7.80;95.15;99370.44;5026623;28;19944;-86
2021/09/10 00:50:20;;;;;;;;;;;;;;;7.75;94.39;99361.81;5026732;28;20001;-86
2021/09/10 00:52:45;;;;;;;;;;;;;;;7.80;94.82;99366.91;5025491;28;20413;-86
2021/09/10 00:55:11;;;;;;;;;;;;;;;7.82;94.40;99365.94;5002001;28;19921;-86
2021/09/10 03:17:26;;;;;;;;;;;;;;;7.49;96.00;99346.13;4981483;28;19973;-85
2021/09/10 03:19:51;;;;;;;;;;;;;;;7.52;95.46;99353.94;4993601;28;19922;-87
2021/09/10 03:22:16;;;;;;;;;;;;;;;7.47;95.55;99343.53;4995453;28;20296;-87
2021/09/10 03:24:41;;;;;;;;;;;;;;;7.49;96.27;99340.84;4995764;28;19918;-86
2021/09/10 03:27:07;;;;;;;;;;;;;;;7.61;98.01;99341.25;4995553;28;19961;-86
2021/09/10 03:29:32;;;;;;;;;;;;;;;7.70;100.00;99337.38;4994188;28;19922;-85
2021/09/10 03:31:57;;;;;;;;;;;;;;;7.93;100.00;99344.44;4992922;28;19968;-88
2021/09/10 03:34:23;;;;;;;;;;;;;;;7.98;100.00;99346.91;4993222;28;20004;-89
2021/09/10 03:36:48;;;;;;;;;;;;;;;8.09;100.00;99346.44;4994020;28;19918;-85
2021/09/10 03:39:14;;;;;;;;;;;;;;;8.16;100.00;99343.50;4995441;28;19914;-86
2021/09/10 03:41:40;;;;;;;;;;;;;;;8.23;100.00;99343.25;4993924;28;19918;-86
2021/09/10 03:44:05;;;;;;;;;;;;;;;8.28;100.00;99343.94;4994112;28;19941;-85
2021/09/10 03:46:30;;;;;;;;;;;;;;;8.39;100.00;99339.06;4992854;28;20376;-91
2021/09/10 03:48:55;;;;;;;;;;;;;;;8.37;100.00;99335.63;4993984;28;19921;-86
2021/09/10 03:51:21;;;;;;;;;;;;;;;8.32;100.00;99333.19;4993227;28;19925;-87
2021/09/10 03:53:46;;;;;;;;;;;;;;;8.27;100.00;99345.72;4993923;28;20373;-87
2021/09/10 03:56:11;;;;;;;;;;;;;;;8.81;100.00;99338.25;4993806;28;19964;-87
2021/09/10 03:58:36;;;;;;;;;;;;;;;9.03;100.00;99334.66;4993821;28;19928;-88
2021/09/10 04:01:02;;;;;;;;;;;;;;;8.99;100.00;99335.75;4992407;28;19925;-87
2021/09/10 04:03:28;;;;;;;;;;;;;;;9.13;100.00;99343.06;4993746;28;19972;-87
2021/09/10 04:05:53;;;;;;;;;;;;;;;9.01;100.00;99331.22;4994668;28;19918;-87
2021/09/10 04:08:18;;;;;;;;;;;;;;;8.81;100.00;99332.97;4992742;28;19924;-91
2021/09/10 04:10:44;;;;;;;;;;;;;;;8.57;100.00;99332.22;4992853;28;20285;-88
2021/09/10 04:13:09;;;;;;;;;;;;;;;8.56;100.00;99334.94;4994956;28;19922;-88
2021/09/10 04:15:35;;;;;;;;;;;;;;;8.41;100.00;99337.25;4992182;28;19959;-88
2021/09/10 04:18:00;;;;;;;;;;;;;;;8.34;100.00;99333.13;4993308;28;20455;-88
2021/09/10 04:20:25;;;;;;;;;;;;;;;8.24;100.00;99335.28;4993082;28;20545;-89
2021/09/10 04:22:51;;;;;;;;;;;;;;;8.23;100.00;99332.72;4994529;28;19925;-87
2021/09/10 04:25:16;;;;;;;;;;;;;;;8.09;100.00;99336.78;4993662;28;19918;-90
2021/09/10 04:27:41;;;;;;;;;;;;;;;8.13;100.00;99345.41;4993206;28;19972;-88
2021/09/10 04:30:07;;;;;;;;;;;;;;;8.08;100.00;99335.03;4991928;28;19926;-89
2021/09/10 04:32:33;;;;;;;;;;;;;;;8.02;100.00;99345.84;4993196;28;19929;-90
2021/09/10 04:34:58;;;;;;;;;;;;;;;7.96;100.00;99330.25;4994726;28;19922;-89
2021/09/10 04:37:24;;;;;;;;;;;;;;;7.94;100.00;99334.72;4993039;28;20008;-88
2021/09/10 04:39:49;;;;;;;;;;;;;;;7.95;100.00;99333.81;4994533;28;19918;-89
2021/09/10 07:42:30;;;;;;;;;;;;;;;7.51;99.29;99455.00;4951399;28;20278;-89
2021/09/10 07:44:55;;;;;;;;;;;;;;;7.52;99.26;99456.75;4971387;28;19927;-90
2021/09/10 07:47:20;;;;;;;;;;;;;;;7.53;99.43;99455.81;4954646;28;19965;-88
2021/09/10 07:49:46;;;;;;;;;;;;;;;7.47;99.75;99454.25;4955733;28;19933;-90
2021/09/10 07:52:11;;;;;;;;;;;;;;;7.47;100.00;99459.53;4971251;28;20282;-87
2021/09/10 07:54:37;;;;;;;;;;;;;;;7.60;99.85;99459.97;4954927;28;20281;-89
2021/09/10 07:57:02;;;;;;;;;;;;;;;7.62;99.55;99463.41;4956179;29;19985;-90
2021/09/10 07:59:27;;;;;;;;;;;;;;;7.58;99.25;99462.66;4971139;28;20005;-89
2021/09/10 08:01:53;;;;;;;;;;;;;;;7.52;99.88;99467.28;4956233;29;19970;-88
2021/09/10 08:04:18;;;;;;;;;;;;;;;7.51;99.99;99473.47;4956818;28;19943;-89
2021/09/10 08:06:43;;;;;;;;;;;;;;;7.51;99.71;99474.31;4971193;28;19918;-91
2021/09/10 08:09:08;;;;;;;;;;;;;;;7.60;100.00;99481.06;4970682;28;19986;-88
2021/09/10 08:11:34;;;;;;;;;;;;;;;7.58;100.00;99482.91;4953942;28;19945;-87
2021/09/10 08:14:01;;;;;;;;;;;;;;;7.56;100.00;99484.72;4970935;28;20057;-87
2021/09/10 08:16:27;;;;;;;;;;;;;;;7.55;100.00;99478.59;4956074;29;19918;-87
2021/09/10 08:18:52;;;;;;;;;;;;;;;7.60;99.72;99481.91;4955907;29;20388;-87
2021/09/10 08:21:17;;;;;;;;;;;;;;;7.52;100.00;99480.47;4954578;29;19925;-86
2021/09/10 08:23:42;;;;;;;;;;;;;;;7.52;100.00;99483.09;4954600;28;20017;-87
2021/09/10 08:26:08;;;;;;;;;;;;;;;7.53;100.00;99487.44;4954396;29;19927;-87
2021/09/10 08:28:33;;;;;;;;;;;;;;;7.52;100.00;99483.09;4954444;28;19966;-88
2021/09/10 08:30:58;;;;;;;;;;;;;;;7.56;100.00;99482.94;4955506;29;20343;-87
2021/09/10 08:33:24;;;;;;;;;;;;;;;7.61;100.00;99478.38;4970425;28;19965;-87
2021/09/10 08:35:49;;;;;;;;;;;;;;;7.55;100.00;99480.38;4969781;28;19922;-85
2021/09/10 08:38:14;;;;;;;;;;;;;;;7.63;100.00;99481.81;4955562;28;19940;-87
2021/09/10 08:40:40;;;;;;;;;;;;;;;7.57;100.00;99484.66;4953791;28;19978;-86
2021/09/10 08:43:06;;;;;;;;;;;;;;;7.61;100.00;99488.91;4955569;28;19919;-86
2021/09/10 08:45:31;;;;;;;;;;;;;;;7.60;100.00;99492.44;4970477;28;20376;-89
2021/09/10 08:47:57;;;;;;;;;;;;;;;7.66;100.00;99487.88;4953925;28;20375;-89
2021/09/10 08:50:23;;;;;;;;;;;;;;;7.59;100.00;99489.88;4953807;28;19928;-86
2021/09/10 08:52:49;;;;;;;;;;;;;;;7.62;100.00;99489.75;4969899;28;19980;-85
2021/09/10 08:55:16;;;;;;;;;;;;;;;7.64;100.00;99493.19;4953705;28;19958;-85
2021/09/10 08:57:48;;;;;;;;;;;;;;;7.61;100.00;99488.03;4954908;29;20290;-87
2021/09/10 09:00:13;;;;;;;;;;;;;;;7.73;99.94;99487.59;4955029;29;20069;-87
2021/09/10 09:02:38;;;;;;;;;;;;;;;7.56;100.00;99492.63;4954892;29;20409;-85
2021/09/10 09:05:04;;;;;;;;;;;;;;;7.63;100.00;99502.91;4954883;29;20385;-86
2021/09/10 09:07:29;;;;;;;;;;;;;;;7.68;100.00;99494.81;4954893;29;19985;-86
2021/09/10 09:09:58;;;;;;;;;;;;;;;7.62;100.00;99487.13;4953273;29;20024;-85
2021/09/10 09:12:31;;;;;;;;;;;;;;;7.65;100.00;99494.94;4954787;29;19922;-86
2021/09/10 09:14:56;;;;;;;;;;;;;;;7.64;100.00;99498.47;4969642;28;19923;-85
2021/09/10 09:17:23;;;;;;;;;;;;;;;7.71;100.00;99499.13;4954759;29;20298;-89
2021/09/10 09:20:07;;;;;;;;;;;;;;;7.68;100.00;99502.75;4954736;28;19925;-85
2021/09/10 09:22:49;;;;;;;;;;;;;;;7.62;100.00;99502.94;4969371;28;19919;-85
2021/09/10 09:25:15;;;;;;;;;;;;;;;7.67;100.00;99495.72;4953256;28;19949;-86
2021/09/10 09:27:41;;;;;;;;;;;;;;;7.68;100.00;99500.09;4954529;29;19922;-86
2021/09/10 09:30:06;;;;;;;;;;;;;;;7.69;100.00;99495.69;4954682;29;19918;-85
2021/09/10 09:32:45;;;;;;;;;;;;;;;7.72;100.00;99485.91;4954608;28;20095;-86
2021/09/10 09:35:11;;;;;;;;;;;;;;;7.67;100.00;99487.81;4969271;28;19922;-86
2021/09/10 09:37:36;;;;;;;;;;;;;;;7.70;100.00;99482.44;4954478;29;19918;-86
2021/09/10 09:40:02;;;;;;;;;;;;;;;7.66;100.00;99485.22;4967945;28;19929;-86
2021/09/10 09:42:29;;;;;;;;;;;;;;;7.62;100.00;99489.75;4954251;28;19926;-86
2021/09/10 09:45:11;;;;;;;;;;;;;;;7.67;100.00;99486.97;4954210;29;19926;-86
2021/09/10 09:47:36;;;;;;;;;;;;;;;7.68;100.00;99484.28;4953574;28;19919;-86
2021/09/10 09:50:06;;;;;;;;;;;;;;;7.65;100.00;99489.66;4954144;28;20009;-86
2021/09/10 09:52:31;;;;;;;;;;;;;;;7.67;100.00;99490.44;4954289;29;20314;-88
2021/09/10 09:54:57;;;;;;;;;;;;;;;7.72;100.00;99491.19;4967532;28;19972;-86
2021/09/10 09:57:23;;;;;;;;;;;;;;;7.69;100.00;99483.38;4954266;28;19926;-85
2021/09/10 09:59:49;;;;;;;;;;;;;;;7.63;100.00;99480.94;4954094;29;19925;-86
2021/09/10 10:02:14;;;;;;;;;;;;;;;7.67;100.00;99481.69;4952679;28;19954;-87
2021/09/10 10:04:39;;;;;;;;;;;;;;;7.75;100.00;99475.22;4952980;28;19919;-90
2021/09/10 10:07:05;;;;;;;;;;;;;;;7.72;100.00;99475.34;4952711;29;19926;-85
2021/09/10 10:09:31;;;;;;;;;;;;;;;7.68;100.00;99478.16;4951341;28;19925;-86
2021/09/10 10:12:00;;;;;;;;;;;;;;;7.75;100.00;99477.84;4968814;28;20048;-86
2021/09/10 10:14:37;;;;;;;;;;;;;;;7.72;100.00;99480.63;4952613;28;19925;-87
2021/09/10 10:17:03;;;;;;;;;;;;;;;7.61;100.00;99488.91;4953994;28;20285;-91
2021/09/10 10:19:36;;;;;;;;;;;;;;;7.71;100.00;99489.44;4952593;28;19918;-86
2021/09/10 10:22:03;;;;;;;;;;;;;;;7.75;100.00;99491.03;4968549;28;19918;-86
2021/09/10 10:24:42;;;;;;;;;;;;;;;7.70;100.00;99487.72;4952485;28;20289;-86
2021/09/10 10:27:30;;;;;;;;;;;;;;;7.69;100.00;99480.72;4968330;28;20004;-86
2021/09/10 10:29:55;;;;;;;;;;;;;;;7.77;100.00;99481.31;4967959;28;19922;-89
2021/09/10 10:32:31;;;;;;;;;;;;;;;7.76;100.00;99487.50;4952756;28;19925;-87
2021/09/10 10:35:15;;;;;;;;;;;;;;;7.63;100.00;99478.31;4967972;28;20306;-86
2021/09/10 10:37:45;;;;;;;;;;;;;;;7.70;100.00;99479.81;4968358;28;19918;-87
2021/09/10 10:40:37;;;;;;;;;;;;;;;7.76;100.00;99469.03;4967076;28;19922;-87
2021/09/10 10:43:05;;;;;;;;;;;;;;;7.73;100.00;99477.06;4983405;28;19923;-87
2021/09/10 10:45:42;;;;;;;;;;;;;;;7.77;100.00;99478.69;4953821;29;19918;-87
2021/09/10 10:48:26;;;;;;;;;;;;;;;7.72;100.00;99480.63;4968253;28;19923;-87
2021/09/10 10:50:51;;;;;;;;;;;;;;;7.73;100.00;99479.69;4968319;28;20288;-88
2021/09/10 10:53:17;;;;;;;;;;;;;;;7.70;100.00;99481.59;4952372;28;19929;-87
2021/09/10 10:55:42;;;;;;;;;;;;;;;7.81;100.00;99479.41;4952321;29;19922;-89
2021/09/10 10:58:21;;;;;;;;;;;;;;;7.76;100.00;99470.81;4953470;29;19922;-87
2021/09/10 11:00:48;;;;;;;;;;;;;;;7.74;100.00;99470.88;4955886;28;19927;-87
2021/09/10 11:03:14;;;;;;;;;;;;;;;7.73;100.00;99470.94;4955920;28;20004;-87
2021/09/10 11:05:50;;;;;;;;;;;;;;;7.73;100.00;99477.06;4971946;28;20006;-89
2021/09/10 11:08:41;;;;;;;;;;;;;;;7.77;100.00;99483.94;4972023;28;20274;-88
2021/09/10 11:11:06;;;;;;;;;;;;;;;7.74;100.00;99480.56;4950733;29;19958;-89
2021/09/10 11:13:31;;;;;;;;;;;;;;;7.80;100.00;99478.56;4971798;28;19961;-88
2021/09/10 11:15:57;;;;;;;;;;;;;;;7.73;100.00;99479.69;4956947;29;19918;-87
2021/09/10 11:18:25;;;;;;;;;;;;;;;7.75;100.00;99488.41;4955719;28;19922;-87
2021/09/10 11:20:53;;;;;;;;;;;;;;;7.77;100.00;99489.22;4957160;28;19953;-88
2021/09/10 11:23:26;;;;;;;;;;;;;;;7.80;100.00;99485.59;4952829;29;19918;-87
2021/09/10 11:25:52;;;;;;;;;;;;;;;7.82;100.00;99484.63;4970079;28;19920;-87
2021/09/10 11:28:18;;;;;;;;;;;;;;;7.76;100.00;99490.13;4955534;28;20428;-87
2021/09/10 11:30:45;;;;;;;;;;;;;;;7.71;100.00;99494.72;4971408;28;20365;-87
2021/09/10 11:33:10;;;;;;;;;;;;;;;7.79;100.00;99490.03;4955359;28;19926;-87
2021/09/10 11:35:37;;;;;;;;;;;;;;;7.81;100.00;99489.97;4955394;28;20005;-87
2021/09/10 11:38:07;;;;;;;;;;;;;;;7.77;100.00;99490.97;4971214;28;19985;-87
2021/09/10 11:40:34;;;;;;;;;;;;;;;7.76;100.00;99497.19;4985363;28;20401;-87
2021/09/10 11:43:16;;;;;;;;;;;;;;;7.76;100.00;99502.47;4955183;28;19944;-87
2021/09/10 11:45:48;;;;;;;;;;;;;;;7.71;100.00;99510.53;4971344;28;19926;-88
2021/09/10 11:48:17;;;;;;;;;;;;;;;7.75;100.00;99506.00;4987259;28;19981;-87
2021/09/10 11:50:43;;;;;;;;;;;;;;;7.71;100.00;99502.63;4950470;29;19973;-87
2021/09/10 11:53:16;;;;;;;;;;;;;;;7.70;100.00;99498.25;4954850;28;19925;-87
2021/09/10 11:56:01;;;;;;;;;;;;;;;7.75;100.00;99506.88;4985838;28;20397;-87
2021/09/10 11:58:31;;;;;;;;;;;;;;;7.66;100.00;99491.41;4954818;28;19918;-87
2021/09/10 12:01:15;;;;;;;;;;;;;;;7.71;100.00;99489.44;4954710;28;19946;-87
2021/09/10 12:03:48;;;;;;;;;;;;;;;7.70;100.00;99482.44;4970901;28;20297;-87
2021/09/10 12:06:19;;;;;;;;;;;;;;;7.76;100.00;99481.38;4955126;28;20014;-88
2021/09/10 12:09:03;;;;;;;;;;;;;;;7.71;100.00;99478.03;4955589;29;19918;-87
2021/09/10 12:11:28;;;;;;;;;;;;;;;7.75;100.00;99477.00;4968232;28;19945;-87
2021/09/10 12:13:55;;;;;;;;;;;;;;;7.79;100.00;99481.25;4970744;28;20370;-86
2021/09/10 12:16:20;;;;;;;;;;;;;;;7.75;100.00;99474.34;4970283;28;20374;-87
2021/09/10 12:19:02;;;;;;;;;;;;;;;7.77;100.00;99473.41;4954221;29;20026;-87
2021/09/10 12:21:28;;;;;;;;;;;;;;;7.78;100.00;99471.63;4954368;28;19925;-87
2021/09/10 12:24:19;;;;;;;;;;;;;;;7.86;100.00;99458.16;4955671;28;19926;-88
2021/09/10 12:26:47;;;;;;;;;;;;;;;7.76;100.00;99463.75;4952809;29;19945;-87
2021/09/10 12:29:18;;;;;;;;;;;;;;;7.79;100.00;99455.72;4969706;28;19999;-88
2021/09/10 12:31:44;;;;;;;;;;;;;;;7.81;100.00;99460.97;4970381;28;20278;-87
2021/09/10 12:34:09;;;;;;;;;;;;;;;7.81;100.00;99469.72;4954183;28;19919;-87
2021/09/10 12:36:34;;;;;;;;;;;;;;;7.82;100.00;99465.31;4954110;28;20331;-88
2021/09/10 12:38:59;;;;;;;;;;;;;;;7.79;100.00;99471.56;4970294;28;19945;-88
2021/09/10 12:41:25;;;;;;;;;;;;;;;7.74;100.00;99470.88;4954004;29;19934;-87
2021/09/10 12:43:51;;;;;;;;;;;;;;;7.88;100.00;99464.22;4949807;29;19992;-87
2021/09/10 12:46:16;;;;;;;;;;;;;;;7.89;100.00;99473.88;4954019;29;19937;-87
2021/09/10 12:48:41;;;;;;;;;;;;;;;7.82;100.00;99471.44;4970103;28;19922;-87
2021/09/10 12:51:07;;;;;;;;;;;;;;;7.85;100.00;99474.88;4953667;28;19925;-87
2021/09/10 12:53:33;;;;;;;;;;;;;;;7.81;100.00;99472.34;4954045;28;19925;-88
2021/09/10 12:55:58;;;;;;;;;;;;;;;7.86;100.00;99476.63;4953766;29;19937;-87
2021/09/10 12:58:23;;;;;;;;;;;;;;;7.85;100.00;99469.59;4969841;28;20107;-87
2021/09/10 13:00:49;;;;;;;;;;;;;;;7.84;100.00;99474.03;4953782;28;19966;-86
2021/09/10 13:03:14;;;;;;;;;;;;;;;7.82;100.00;99465.31;4953583;28;19914;-86
2021/09/10 13:05:39;;;;;;;;;;;;;;;7.87;100.00;99457.25;4954961;29;19922;-87
2021/09/10 13:08:05;;;;;;;;;;;;;;;7.86;100.00;99458.16;4969702;28;19914;-87
2021/09/10 13:10:30;;;;;;;;;;;;;;;7.83;100.00;99461.75;4953340;28;19922;-86
2021/09/10 13:12:55;;;;;;;;;;;;;;;7.85;100.00;99459.06;4953632;28;19926;-87
2021/09/10 13:15:21;;;;;;;;;;;;;;;7.89;100.00;99455.41;4953333;28;19954;-86
2021/09/10 13:17:47;;;;;;;;;;;;;;;7.90;100.00;99452.72;4969700;28;19927;-87
2021/09/10 13:20:13;;;;;;;;;;;;;;;7.85;100.00;99464.34;4969471;28;19930;-87
2021/09/10 13:22:39;;;;;;;;;;;;;;;7.93;100.00;99457.00;4969446;28;20278;-86
2021/09/10 13:25:04;;;;;;;;;;;;;;;7.93;100.00;99457.88;4952029;28;19944;-86
2021/09/10 13:27:29;;;;;;;;;;;;;;;7.89;100.00;99460.69;4953189;28;19973;-86
2021/09/10 13:29:56;;;;;;;;;;;;;;;7.93;100.00;99457.00;4953109;28;19919;-86
2021/09/10 13:32:22;;;;;;;;;;;;;;;7.98;100.00;99457.69;4969144;28;19922;-86
2021/09/10 13:34:47;;;;;;;;;;;;;;;7.93;100.00;99457.00;4954306;29;19937;-86
2021/09/10 13:37:12;;;;;;;;;;;;;;;7.95;100.00;99457.81;4952850;29;19922;-86
2021/09/10 13:39:39;;;;;;;;;;;;;;;7.89;100.00;99450.13;4966331;28;19918;-86
2021/09/10 13:42:04;;;;;;;;;;;;;;;7.89;100.00;99450.13;4952904;28;19922;-87
2021/09/10 13:44:30;;;;;;;;;;;;;;;7.87;100.00;99454.59;4952261;28;19933;-86
2021/09/10 13:46:55;;;;;;;;;;;;;;;7.85;100.00;99454.66;4954133;29;19925;-88
2021/09/10 13:49:21;;;;;;;;;;;;;;;7.91;100.00;99451.78;4967901;28;19934;-86
2021/09/10 13:51:48;;;;;;;;;;;;;;;7.89;100.00;99450.13;4952706;28;21306;-87
2021/09/10 13:54:13;;;;;;;;;;;;;;;7.93;100.00;99449.97;4956327;28;19966;-85
2021/09/10 13:56:38;;;;;;;;;;;;;;;7.90;100.00;99446.59;4951988;29;19918;-86
2021/09/10 13:59:04;;;;;;;;;;;;;;;7.84;100.00;99449.44;4968216;28;20396;-87
2021/09/10 14:01:29;;;;;;;;;;;;;;;7.90;100.00;99455.34;4952544;28;19929;-87
2021/09/10 14:03:54;;;;;;;;;;;;;;;7.95;100.00;99452.53;4952901;28;19919;-86
2021/09/10 14:06:19;;;;;;;;;;;;;;;7.84;100.00;99462.63;4952347;29;19937;-88
2021/09/10 14:08:45;;;;;;;;;;;;;;;7.87;100.00;99454.59;4968600;28;19919;-86
2021/09/10 14:11:10;;;;;;;;;;;;;;;7.87;100.00;99463.38;4967335;28;19937;-87
2021/09/10 14:13:35;;;;;;;;;;;;;;;7.82;100.00;99460.03;4953919;29;19922;-86
2021/09/10 14:16:01;;;;;;;;;;;;;;;7.87;100.00;99449.34;4954041;28;20018;-86
2021/09/10 14:18:26;;;;;;;;;;;;;;;7.87;100.00;99457.25;4966368;28;20017;-86
2021/09/10 14:20:52;;;;;;;;;;;;;;;7.81;100.00;99459.16;4953626;28;19933;-87
2021/09/10 14:23:17;;;;;;;;;;;;;;;7.92;100.00;99460.56;4952267;28;19922;-86
2021/09/10 14:25:42;;;;;;;;;;;;;;;7.87;100.00;99458.09;4952717;28;19976;-85
2021/09/10 14:28:08;;;;;;;;;;;;;;;7.88;100.00;99459.81;4966986;28;19981;-87
2021/09/10 14:30:33;;;;;;;;;;;;;;;7.85;100.00;99453.78;4952170;28;19965;-86
2021/09/10 14:32:58;;;;;;;;;;;;;;;7.82;100.00;99462.69;4952196;28;19922;-85
2021/09/10 14:35:24;;;;;;;;;;;;;;;7.90;100.00;99463.25;4971598;28;19923;-85
2021/09/10 14:37:51;;;;;;;;;;;;;;;7.85;100.00;99465.22;4956150;28;19922;-88
2021/09/10 14:40:16;;;;;;;;;;;;;;;7.92;100.00;99452.66;4951053;29;19918;-87
2021/09/10 14:42:42;;;;;;;;;;;;;;;7.91;100.00;99458.84;4956150;28;19929;-87
2021/09/10 14:45:07;;;;;;;;;;;;;;;7.88;100.00;99454.56;4956135;28;19923;-86
2021/09/10 14:47:32;;;;;;;;;;;;;;;7.92;100.00;99465.84;4972118;28;19934;-88
2021/09/10 14:49:58;;;;;;;;;;;;;;;7.93;100.00;99459.63;4957956;28;20010;-87
2021/09/10 14:52:23;;;;;;;;;;;;;;;7.87;100.00;99458.09;4955184;28;19919;-86
2021/09/10 14:54:48;;;;;;;;;;;;;;;7.88;100.00;99457.19;4954744;28;19973;-87
2021/09/10 14:57:13;;;;;;;;;;;;;;;7.91;100.00;99454.41;4972046;28;19929;-87
2021/09/10 14:59:49;;;;;;;;;;;;;;;7.85;100.00;99449.38;4972000;28;19918;-86
2021/09/10 15:02:15;;;;;;;;;;;;;;;7.88;100.00;99451.03;4955154;29;19930;-87
2021/09/10 15:04:41;;;;;;;;;;;;;;;7.87;100.00;99451.97;4956979;29;19919;-86
2021/09/10 15:07:07;;;;;;;;;;;;;;;7.89;100.00;99452.75;4955678;28;20395;-87
2021/09/10 15:09:32;;;;;;;;;;;;;;;7.90;100.00;99451.84;4954328;28;19919;-86
2021/09/10 15:11:57;;;;;;;;;;;;;;;7.85;100.00;99451.16;4971831;28;19958;-86
2021/09/10 15:14:23;;;;;;;;;;;;;;;7.92;100.00;99450.00;4971955;28;19930;-86
2021/09/10 15:16:49;;;;;;;;;;;;;;;7.92;100.00;99456.13;4956994;29;19922;-87
2021/09/10 15:19:14;;;;;;;;;;;;;;;7.85;100.00;99448.50;4956761;29;19918;-85
2021/09/10 15:21:40;;;;;;;;;;;;;;;7.91;100.00;99453.56;4971885;28;20305;-86
2021/09/10 15:24:05;;;;;;;;;;;;;;;7.90;100.00;99451.84;4955645;29;20350;-86
2021/09/10 15:26:31;;;;;;;;;;;;;;;7.93;100.00;99455.22;4954097;29;20326;-86
2021/09/10 15:28:56;;;;;;;;;;;;;;;7.95;100.00;99449.91;4971612;28;19945;-86
2021/09/10 15:31:21;;;;;;;;;;;;;;;7.95;100.00;99452.53;4970790;28;19919;-85
2021/09/10 15:33:46;;;;;;;;;;;;;;;7.92;100.00;99444.75;4954266;28;20527;-86
2021/09/10 15:36:12;;;;;;;;;;;;;;;7.90;100.00;99451.84;4956058;29;19962;-86
2021/09/10 15:38:37;;;;;;;;;;;;;;;7.89;100.00;99460.69;4950247;29;20378;-86
2021/09/10 15:41:03;;;;;;;;;;;;;;;7.90;100.00;99462.41;4953862;28;19926;-85
2021/09/10 15:43:28;;;;;;;;;;;;;;;7.89;100.00;99469.44;4954943;28;20317;-85
2021/09/10 15:45:53;;;;;;;;;;;;;;;7.84;100.00;99465.28;4949580;28;19925;-85
2021/09/10 15:48:24;;;;;;;;;;;;;;;7.86;100.00;99466.91;4952743;29;20057;-85
2021/09/10 15:50:49;;;;;;;;;;;;;;;7.89;100.00;99471.22;4971392;28;20075;-85
2021/09/10 15:53:14;;;;;;;;;;;;;;;7.88;100.00;99475.66;4971138;28;20011;-86
2021/09/10 15:55:41;;;;;;;;;;;;;;;7.82;100.00;99479.38;4953818;28;20385;-85
2021/09/10 15:58:06;;;;;;;;;;;;;;;7.86;100.00;99495.94;4956255;28;20008;-85
2021/09/10 16:00:32;;;;;;;;;;;;;;;7.87;100.00;99487.13;4954968;28;19977;-85
2021/09/10 16:02:57;;;;;;;;;;;;;;;7.94;100.00;99474.56;4954708;28;20380;-86
2021/09/10 16:05:23;;;;;;;;;;;;;;;7.85;100.00;99482.78;4970781;28;19934;-86
2021/09/10 16:07:49;;;;;;;;;;;;;;;7.87;100.00;99478.34;4950899;29;19925;-86
2021/09/10 16:10:14;;;;;;;;;;;;;;;7.89;100.00;99477.34;4953196;28;19918;-86
2021/09/10 16:12:39;;;;;;;;;;;;;;;7.89;100.00;99481.78;4970807;28;19929;-86
2021/09/10 16:15:08;;;;;;;;;;;;;;;7.94;100.00;99477.19;4955898;28;19918;-86
2021/09/10 16:17:33;;;;;;;;;;;;;;;7.98;100.00;99471.75;4955697;29;19966;-85
2021/09/10 16:19:58;;;;;;;;;;;;;;;7.93;100.00;99478.97;4954892;28;20016;-85
2021/09/10 16:22:24;;;;;;;;;;;;;;;7.93;100.00;99478.09;4970474;28;20366;-85
2021/09/10 16:24:49;;;;;;;;;;;;;;;7.93;100.00;99483.38;4953032;28;19973;-85
2021/09/10 16:27:15;;;;;;;;;;;;;;;7.91;100.00;99479.94;4955763;29;19973;-85
2021/09/10 16:29:40;;;;;;;;;;;;;;;7.97;100.00;99475.28;4970214;28;19925;-85
2021/09/10 16:32:05;;;;;;;;;;;;;;;8.01;100.00;99476.06;4970271;28;19918;-85
2021/09/10 16:34:31;;;;;;;;;;;;;;;7.90;100.00;99476.44;4955300;29;20041;-86
2021/09/10 16:36:56;;;;;;;;;;;;;;;7.86;100.00;99481.88;4954176;28;19924;-85
2021/09/10 16:39:21;;;;;;;;;;;;;;;7.89;100.00;99476.50;4954974;29;20013;-85
2021/09/10 16:41:47;;;;;;;;;;;;;;;7.92;100.00;99476.41;4969116;28;19922;-87
2021/09/10 16:44:12;;;;;;;;;;;;;;;7.93;100.00;99472.81;4970311;28;20406;-85
2021/09/10 16:46:37;;;;;;;;;;;;;;;7.96;100.00;99477.97;4970007;28;19926;-86
2021/09/10 16:49:03;;;;;;;;;;;;;;;8.03;100.00;99479.50;4970104;28;19926;-85
2021/09/10 16:51:28;;;;;;;;;;;;;;;7.94;100.00;99485.09;4953841;28;19918;-86
2021/09/10 16:53:54;;;;;;;;;;;;;;;7.99;100.00;99491.06;4953963;28;19922;-86
2021/09/10 16:56:19;;;;;;;;;;;;;;;8.02;100.00;99485.69;4968475;28;20274;-86
2021/09/10 16:58:44;;;;;;;;;;;;;;;7.94;100.00;99495.66;4969768;28;19973;-85
2021/09/10 17:01:10;;;;;;;;;;;;;;;7.98;100.00;99489.38;4955088;29;20013;-85
2021/09/10 17:03:35;;;;;;;;;;;;;;;7.97;100.00;99485.00;4954780;29;19965;-86
2021/09/10 17:06:00;;;;;;;;;;;;;;;8.02;100.00;99488.31;4969800;28;19918;-85
2021/09/10 17:08:26;;;;;;;;;;;;;;;8.00;100.00;99490.16;4953622;28;19957;-85
2021/09/10 17:10:52;;;;;;;;;;;;;;;8.05;100.00;99482.94;4947883;29;19922;-87
2021/09/10 17:13:18;;;;;;;;;;;;;;;8.01;100.00;99489.25;4969847;28;19926;-87
2021/09/10 17:15:44;;;;;;;;;;;;;;;8.03;100.00;99489.19;4953467;29;19926;-86
2021/09/10 17:18:10;;;;;;;;;;;;;;;8.03;100.00;99484.78;4969256;28;19930;-86
2021/09/10 17:20:36;;;;;;;;;;;;;;;8.00;100.00;99496.28;4969463;28;19919;-85
2021/09/10 17:23:01;;;;;;;;;;;;;;;8.11;100.00;99493.25;4953642;28;19926;-86
2021/09/10 17:25:26;;;;;;;;;;;;;;;8.06;100.00;99499.59;4968182;28;20406;-86
2021/09/10 17:27:51;;;;;;;;;;;;;;;8.08;100.00;99496.00;4953371;28;20282;-86
2021/09/10 17:30:17;;;;;;;;;;;;;;;8.06;100.00;99503.13;4953210;29;20365;-85
2021/09/10 17:32:42;;;;;;;;;;;;;;;8.06;100.00;99505.78;4953056;28;19929;-85
2021/09/10 17:35:07;;;;;;;;;;;;;;;8.08;100.00;99508.34;4969113;28;19961;-86
2021/09/10 17:37:33;;;;;;;;;;;;;;;8.04;100.00;99506.72;4969338;28;19922;-86
2021/09/10 17:40:00;;;;;;;;;;;;;;;8.06;100.00;99504.88;4951745;28;19938;-86
2021/09/10 17:42:25;;;;;;;;;;;;;;;9.44;100.00;99501.22;4953018;28;20370;-87
2021/09/10 17:44:53;;;;;;;;;;;;;;;8.64;100.00;99507.13;4969089;28;19923;-86
2021/09/10 17:47:18;;;;;;;;;;;;;;;8.45;100.00;99507.00;4952739;29;19923;-85
2021/09/10 17:49:43;;;;;;;;;;;;;;;8.33;100.00;99509.16;4953970;29;19925;-87
2021/09/10 17:52:15;;;;;;;;;;;;;;;8.24;100.00;99509.50;4968899;28;20001;-85
2021/09/10 17:54:40;;;;;;;;;;;;;;;8.27;100.00;99514.66;4952460;28;19929;-85
2021/09/10 17:57:06;;;;;;;;;;;;;;;8.22;100.00;99515.72;4967927;28;19918;-88
2021/09/10 17:59:31;;;;;;;;;;;;;;;8.25;100.00;99515.63;4969535;28;19925;-85
2021/09/10 18:01:56;;;;;;;;;;;;;;;8.14;100.00;99518.69;4953868;29;19918;-87
2021/09/10 18:04:21;;;;;;;;;;;;;;;8.26;100.00;99520.00;4968831;28;19918;-84
2021/09/10 18:06:48;;;;;;;;;;;;;;;8.19;100.00;99525.50;4952646;28;20013;-87